Stations météo

réclame
Mon MeteoGroup
Kinbrace, Grande-Bretagne (99016): Température de l'air & dewpoint: 14.07.2018 21:00:00 - 20.07.2018 21:00:00 (BST)Kinbrace, Grande-Bretagne (99016): Vitesse du vent: 14.07.2018 21:00:00 - 20.07.2018 21:00:00 (BST)Kinbrace, Grande-Bretagne (99016): Direction du vent: 14.07.2018 21:00:00 - 20.07.2018 21:00:00 (BST)Kinbrace, Grande-Bretagne (99016): Quantités de précipitations: 14.07.2018 21:00:00 - 20.07.2018 21:00:00 (BST)
Date & Time tt [°C] td [°C] ff [km/h] ff [knt] dd rr [mm]
20.07.2018 21:00:00 - - - - - 0,0
20.07.2018 20:00:00 14,5 12,6 2 1 N 0,0
20.07.2018 19:00:00 14,2 12,8 9 5 NNE 0,0
20.07.2018 18:00:00 14,0 12,7 15 8 N 0,0
20.07.2018 17:00:00 15,3 13,2 18 10 N 0,0
20.07.2018 16:00:00 16,4 14,6 21 11 N 0,0
20.07.2018 15:00:00 16,7 15,5 18 10 N 0,2
20.07.2018 14:00:00 17,3 14,8 5 3 N 0,2
20.07.2018 13:00:00 16,7 14,3 2 1 NW 0,4
20.07.2018 12:00:00 16,4 14,0 8 4 WNW 0,0
20.07.2018 11:00:00 15,9 13,3 9 5 S 0,0
20.07.2018 10:00:00 14,1 13,3 5 3 SSE 0,0
20.07.2018 09:00:00 13,6 12,8 8 4 SE 1,0
20.07.2018 08:00:00 13,1 12,4 9 5 SSE 1,6
20.07.2018 07:00:00 12,8 11,8 13 7 SE 0,0
20.07.2018 06:00:00 12,2 11,4 8 4 ESE 0,2
20.07.2018 05:00:00 12,1 11,1 5 3 SSE 0,4
20.07.2018 04:00:00 12,9 10,2 11 6 SSE 0,0
20.07.2018 03:00:00 12,1 10,4 8 4 S 0,0
20.07.2018 02:00:00 12,3 10,3 8 4 ESE 0,2
20.07.2018 01:00:00 12,6 10,0 5 3 SE 0,0
20.07.2018 00:00:00 12,2 10,4 8 4 S 0,2
19.07.2018 23:00:00 14,1 9,0 5 3 SW 0,0
19.07.2018 22:00:00 14,6 8,6 5 3 WSW 0,0
19.07.2018 21:00:00 14,9 9,7 4 2 W 0,0
19.07.2018 20:00:00 15,8 8,8 5 3 W 0,0
19.07.2018 19:00:00 16,5 8,4 16 9 W 0,0
19.07.2018 18:00:00 20,0 8,5 9 5 W 0,0
19.07.2018 17:00:00 19,9 8,1 16 9 WSW 0,0
19.07.2018 16:00:00 19,5 7,3 11 6 WSW 0,0
19.07.2018 15:00:00 20,1 8,3 16 9 W 0,0
19.07.2018 14:00:00 18,7 7,9 15 8 WSW 0,0
19.07.2018 13:00:00 18,7 7,1 13 7 W 0,0
19.07.2018 12:00:00 17,5 9,0 13 7 W 0,0
19.07.2018 11:00:00 16,6 7,9 16 9 W 0,0
19.07.2018 10:00:00 17,5 8,9 13 7 SSW 0,0
19.07.2018 09:00:00 16,2 9,1 11 6 SW 0,0
19.07.2018 08:00:00 14,7 10,8 4 2 SSE 0,0
19.07.2018 07:00:00 11,7 10,5 4 2 ESE 0,0
19.07.2018 06:00:00 11,3 10,4 4 2 E 0,0
19.07.2018 05:00:00 11,0 10,4 5 3 NNE 0,0
19.07.2018 04:00:00 11,0 10,2 4 2 E 0,0
19.07.2018 03:00:00 11,2 10,2 2 1 S 0,0
19.07.2018 02:00:00 11,6 10,5 4 2 SSE 0,0
19.07.2018 01:00:00 11,8 10,5 2 1 W 0,0
19.07.2018 00:00:00 11,3 9,6 5 3 SE 0,0
18.07.2018 23:00:00 12,9 10,5 11 6 ESE 0,0
18.07.2018 22:00:00 13,2 10,1 15 8 E 0,0
18.07.2018 21:00:00 14,8 10,3 8 4 ENE 0,0
18.07.2018 20:00:00 15,2 8,8 8 4 NNW 0,0
18.07.2018 19:00:00 15,7 8,0 5 3 N 0,0
18.07.2018 18:00:00 16,3 8,2 4 2 N 0,0
18.07.2018 17:00:00 16,4 9,0 9 5 WNW 0,0
18.07.2018 16:00:00 16,1 7,7 15 8 WNW 0,0
18.07.2018 15:00:00 15,7 8,3 13 7 WNW 0,0
18.07.2018 14:00:00 14,6 8,7 9 5 NW 0,0
18.07.2018 13:00:00 14,8 9,1 9 5 NW 0,0
18.07.2018 12:00:00 14,1 9,3 21 11 NW 0,0
18.07.2018 11:00:00 15,0 9,3 11 6 WNW 0,0
18.07.2018 10:00:00 14,5 9,2 5 3 WSW 0,0
18.07.2018 09:00:00 13,6 9,8 9 5 WSW 0,0
18.07.2018 08:00:00 12,5 9,8 5 3 SSE 0,0
18.07.2018 07:00:00 11,3 10,0 5 3 SE 0,0
18.07.2018 06:00:00 10,4 9,4 5 3 SE 0,0
18.07.2018 05:00:00 10,8 9,5 5 3 E 0,0
18.07.2018 04:00:00 10,4 9,3 5 3 SSW 0,0
18.07.2018 03:00:00 10,1 9,5 5 3 ESE 0,0
18.07.2018 02:00:00 9,9 9,3 8 4 E 0,0
18.07.2018 01:00:00 10,5 10,1 2 1 SE 0,0
18.07.2018 00:00:00 10,6 10,0 4 2 ESE 0,0
17.07.2018 23:00:00 11,5 10,6 5 3 ESE 0,0
17.07.2018 22:00:00 12,4 10,9 5 3 E 0,0
17.07.2018 21:00:00 13,0 11,5 4 2 SE 0,2
17.07.2018 20:00:00 13,1 11,1 5 3 E 0,6
17.07.2018 19:00:00 14,2 11,1 5 3 N 0,0
17.07.2018 18:00:00 15,6 11,7 11 6 NNE 0,0
17.07.2018 17:00:00 14,0 11,7 18 10 NNE 0,0
17.07.2018 16:00:00 14,3 12,5 21 11 N 0,4
17.07.2018 15:00:00 15,1 11,7 15 8 N 0,0
17.07.2018 14:00:00 14,6 11,2 18 10 WNW 0,0
17.07.2018 13:00:00 17,5 8,1 5 3 SSE 0,0
17.07.2018 12:00:00 16,1 9,9 8 4 WNW 0,0
17.07.2018 11:00:00 16,8 9,5 5 3 N 0,0
17.07.2018 10:00:00 15,5 10,5 8 4 N 0,0
17.07.2018 09:00:00 14,7 11,4 8 4 SW 0,0
17.07.2018 08:00:00 12,9 12,0 2 1 N 0,0
17.07.2018 07:00:00 11,5 11,2 2 1 SSW 0,0
17.07.2018 06:00:00 10,4 10,2 2 1 S 0,0
17.07.2018 05:00:00 9,4 9,2 4 2 ENE 0,0
17.07.2018 04:00:00 8,9 8,7 4 2 S 0,0
17.07.2018 03:00:00 9,1 8,2 4 2 E 0,0
17.07.2018 02:00:00 10,6 9,4 4 2 SSW 0,0
17.07.2018 01:00:00 12,5 10,9 5 3 SE 0,0
17.07.2018 00:00:00 12,7 11,2 4 2 SSE 0,0
16.07.2018 23:00:00 13,9 11,7 9 5 ESE 0,0
16.07.2018 22:00:00 15,0 11,5 5 3 SSE 0,0
16.07.2018 21:00:00 15,4 11,9 11 6 ESE 0,0
16.07.2018 20:00:00 16,1 11,9 15 8 SSE 0,0
16.07.2018 19:00:00 16,6 12,1 15 8 SE 0,0
16.07.2018 18:00:00 16,9 12,5 18 10 SSE 0,0
16.07.2018 17:00:00 17,5 13,0 22 12 SE 0,0
16.07.2018 16:00:00 18,4 11,4 11 6 S 0,0
16.07.2018 15:00:00 18,2 11,9 13 7 S 0,0
16.07.2018 14:00:00 18,0 10,7 8 4 SE 0,0
16.07.2018 13:00:00 17,0 12,4 16 9 E -
16.07.2018 12:00:00 16,9 9,4 5 3 S 0,0
16.07.2018 11:00:00 16,9 9,7 13 7 W 0,0
16.07.2018 10:00:00 16,8 10,2 11 6 SW 0,0
16.07.2018 09:00:00 16,2 11,1 15 8 WSW 0,0
16.07.2018 08:00:00 14,1 12,7 4 2 SW 0,0
16.07.2018 07:00:00 13,1 12,4 4 2 SE 0,4
16.07.2018 06:00:00 13,5 12,3 5 3 SW 0,6
16.07.2018 05:00:00 14,7 13,1 5 3 N 0,0
16.07.2018 04:00:00 16,1 14,3 9 5 WSW 0,0
16.07.2018 03:00:00 17,1 14,6 8 4 SW 0,0
16.07.2018 02:00:00 17,3 14,8 15 8 SSE 0,0
16.07.2018 01:00:00 17,5 15,1 8 4 SE 0,0
16.07.2018 00:00:00 17,7 15,3 13 7 SE 0,0
15.07.2018 23:00:00 17,7 15,6 15 8 ESE 0,0
15.07.2018 22:00:00 18,0 15,7 16 9 SE 0,0
15.07.2018 21:00:00 17,8 16,1 22 12 SE 0,0
15.07.2018 20:00:00 18,2 16,6 13 7 ESE 0,0
15.07.2018 19:00:00 18,8 16,6 13 7 SE 0,0
15.07.2018 18:00:00 19,5 16,8 13 7 SSE 0,0
15.07.2018 17:00:00 20,2 16,5 11 6 SSE 0,0
15.07.2018 16:00:00 20,1 16,8 18 10 S 0,0
15.07.2018 15:00:00 20,3 17,0 13 7 SE 0,0
15.07.2018 14:00:00 19,4 16,6 15 8 SSE 0,6
15.07.2018 13:00:00 19,1 16,5 9 5 S 0,2
15.07.2018 12:00:00 19,6 16,2 9 5 SSW 0,0
15.07.2018 11:00:00 19,3 16,0 13 7 S 0,0
15.07.2018 10:00:00 18,1 16,5 13 7 S 0,2
15.07.2018 09:00:00 17,6 15,7 11 6 SSE 0,0
15.07.2018 08:00:00 17,5 16,3 8 4 S 0,0
15.07.2018 07:00:00 16,5 15,3 5 3 SSE 0,0
15.07.2018 06:00:00 16,6 15,0 11 6 ESE 0,0
15.07.2018 05:00:00 16,7 15,0 18 10 SSE 0,6
15.07.2018 04:00:00 16,8 14,9 18 10 S 0,0
15.07.2018 03:00:00 16,5 14,8 18 10 S 0,0
15.07.2018 02:00:00 16,8 14,7 21 11 S 0,0
15.07.2018 01:00:00 16,2 14,5 16 9 SSE 0,0
15.07.2018 00:00:00 17,1 14,0 18 10 SSE 0,0
14.07.2018 23:00:00 17,3 14,5 16 9 SSE 0,0
14.07.2018 22:00:00 17,5 14,4 15 8 SSE 0,0
14.07.2018 21:00:00 18,2 14,5 15 8 S 0,0

tt = Température de l'air
td = dewpoint
ff = Vitesse du vent
dd = Direction du vent
rr = Quantités de précipitations

stations d'obs. à proximité